Acapulco Jet — IWUM — position and weather

sailwx.info

Track history (hours):
 
Tides and Currents Weather Stations Pressure Air Temp Water Temp Dewpoint Dewpoint Depression Visibility Wind Speed Wind Dir Waves Ship Positions

Acapulco Jet

Last reported at 2017-Jul-22 16:14 UTC. Time now 2017-Jul-22 20:41 UTC.
Position N 40°50' E 014°13'.

Length 35 m; draft 1.2 m.

Type: High speed craft. MMSI: 247050100.

Date/timePositionNaut miles runAvg speedWind from/ knotsBaromVisibWave heightAir tempDewpointWater temp
2017-Jul-22 16:14N 40°50' E 014°13'0 0.0
2017-Jul-22 16:00N 40°50' E 014°13'2 4.5
2017-Jul-22 15:31N 40°50' E 014°16'1427.3
2017-Jul-22 15:01N 40°44' E 014°00'6 6.0
2017-Jul-22 14:01N 40°46' E 014°08'8 5.9
2017-Jul-22 12:44N 40°50' E 014°16'521.0
2017-Jul-22 12:31N 40°47' E 014°11'1223.3
2017-Jul-22 12:00N 40°45' E 013°56'0 0.0
2017-Jul-22 11:29N 40°45' E 013°56'0 0.0
2017-Jul-22 10:59N 40°45' E 013°56'0 0.0
2017-Jul-22 10:26N 40°45' E 013°56'0 0.0
2017-Jul-22 09:59N 40°45' E 013°56'0 0.0
2017-Jul-22 09:30N 40°45' E 013°56'612.6
2017-Jul-22 09:00N 40°45' E 014°05'10 7.4
2017-Jul-22 07:42N 40°50' E 014°15'2 8.3
2017-Jul-22 07:31N 40°49' E 014°17'3 5.4
2017-Jul-22 07:00N 40°50' E 014°13'0 0.0
2017-Jul-21 17:10N 40°50' E 014°13'315.6
2017-Jul-21 17:00N 40°47' E 014°12'1224.2
2017-Jul-21 16:30N 40°45' E 013°56'817.1
2017-Jul-21 16:01N 40°41' E 014°06'9 8.3
2017-Jul-21 14:52N 40°34' E 014°15'1 3.4
2017-Jul-21 14:29N 40°34' E 014°16'1 2.4
2017-Jul-21 14:01N 40°34' E 014°18'0 0.4
2017-Jul-21 13:31N 40°34' E 014°18'0 0.3
2017-Jul-21 13:00N 40°34' E 014°18'0 0.3
2017-Jul-21 12:30N 40°34' E 014°17'0 0.5
2017-Jul-21 12:00N 40°33' E 014°17'0 0.5
2017-Jul-21 11:30N 40°33' E 014°18'0 0.4
2017-Jul-21 10:54N 40°33' E 014°18'0 0.2
2017-Jul-21 10:30N 40°33' E 014°18'2 1.2
2017-Jul-21 08:27N 40°33' E 014°15'920.0
2017-Jul-21 08:00N 40°40' E 014°07'918.3
2017-Jul-21 07:30N 40°45' E 013°56'1 1.0
2017-Jul-21 06:59N 40°45' E 013°57'1428.1
2017-Jul-21 06:31N 40°49' E 014°14'0 0.0
2017-Jul-20 16:13N 40°50' E 014°13'2 2.9
2017-Jul-20 15:29N 40°48' E 014°15'1528.7
2017-Jul-20 14:58N 40°45' E 013°56'9 9.6
2017-Jul-20 14:01N 40°47' E 014°08'6 4.3
2017-Jul-20 12:35N 40°48' E 014°16'331.0
2017-Jul-20 12:29N 40°47' E 014°12'1 0.4
2017-Jul-20 10:34N 40°47' E 014°11'228.4
2017-Jul-20 10:29N 40°48' E 014°13'3 4.6
2017-Jul-20 09:52N 40°50' E 014°15'2 4.3
2017-Jul-20 09:30N 40°50' E 014°13'0 0.0
2017-Jul-20 08:28N 40°50' E 014°13'0 0.0
2017-Jul-20 07:59N 40°50' E 014°13'0 0.0
2017-Jul-20 07:28N 40°50' E 014°13'2 2.6
2017-Jul-20 06:37N 40°48' E 014°16'329.0
2017-Jul-20 06:30N 40°47' E 014°12'1 0.7
2017-Jul-20 05:27N 40°47' E 014°11'4 0.2
2017-Jul-19 06:38N 40°49' E 014°16'2 0.1
2017-Jul-18 12:31N 40°50' E 014°13'0 0.0
2017-Jul-18 12:29N 40°50' E 014°13'0 0.0
2017-Jul-18 12:00N 40°50' E 014°13'0 0.0
2017-Jul-18 11:30N 40°50' E 014°13'0 0.0
2017-Jul-18 11:00N 40°50' E 014°13'0 0.0
2017-Jul-18 10:30N 40°50' E 014°13'0 0.0
2017-Jul-18 10:00N 40°50' E 014°13'0 0.0
2017-Jul-18 09:30N 40°50' E 014°13'0 0.0
2017-Jul-18 09:00N 40°50' E 014°13'0 0.9
2017-Jul-18 08:30N 40°49' E 014°14'2 1.1
2017-Jul-18 06:42N 40°48' E 014°16'528.4
2017-Jul-18 06:30N 40°47' E 014°09'4 4.4
2017-Jul-18 05:40N 40°46' E 014°05'530.0
2017-Jul-18 05:30N 40°47' E 014°11'2 0.1
2017-Jul-17 10:24N 40°48' E 014°13'2 0.7
2017-Jul-17 08:03N 40°47' E 014°11'128.0
2017-Jul-17 08:00N 40°47' E 014°13'3 2.5
2017-Jul-17 06:51N 40°48' E 014°16'6 4.8
2017-Jul-17 05:33N 40°47' E 014°08'129.0
2017-Jul-17 05:30N 40°47' E 014°10'4 0.4
2017-Jul-16 18:30N 40°50' E 014°13'3 3.4
2017-Jul-16 17:33N 40°47' E 014°11'131.8
2017-Jul-16 17:30N 40°47' E 014°13'2 2.8
2017-Jul-16 16:43N 40°48' E 014°16'4 1.3
2017-Jul-16 13:57N 40°47' E 014°11'0 0.1
2017-Jul-16 10:39N 40°47' E 014°12'3 2.8
2017-Jul-16 09:31N 40°48' E 014°16'126.6
2017-Jul-16 09:29N 40°48' E 014°14'2 0.1
2017-Jul-15 16:07N 40°50' E 014°13'2 3.2
2017-Jul-15 15:26N 40°48' E 014°16'4 2.5
2017-Jul-15 13:57N 40°47' E 014°11'1 0.8
2017-Jul-15 12:33N 40°47' E 014°13'330.3
2017-Jul-15 12:28N 40°46' E 014°10'5 0.2
2017-Jul-14 15:31N 40°48' E 014°16'030.9
2017-Jul-14 15:30N 40°48' E 014°15'3 2.2
2017-Jul-14 13:57N 40°47' E 014°11'  
Track history (hours):
 
Tides and Currents Weather Stations Pressure Air Temp Water Temp Dewpoint Dewpoint Depression Visibility Wind Speed Wind Dir Waves Ship Positions

Acapulco Jet

Last reported at 2017-Jul-22 16:14 UTC. Time now 2017-Jul-22 20:41 UTC.
Position N 40°50' E 014°13'.

Length 35 m; draft 1.2 m.

Type: High speed craft. MMSI: 247050100.

Date/timePositionNaut miles runAvg speedWind from/ knotsBaromVisibWave heightAir tempDewpointWater temp
2017-Jul-22 16:14N 40°50' E 014°13'0 0.0
2017-Jul-22 16:00N 40°50' E 014°13'2 4.5
2017-Jul-22 15:31N 40°50' E 014°16'1427.3
2017-Jul-22 15:01N 40°44' E 014°00'6 6.0
2017-Jul-22 14:01N 40°46' E 014°08'8 5.9
2017-Jul-22 12:44N 40°50' E 014°16'521.0
2017-Jul-22 12:31N 40°47' E 014°11'1223.3
2017-Jul-22 12:00N 40°45' E 013°56'0 0.0
2017-Jul-22 11:29N 40°45' E 013°56'0 0.0
2017-Jul-22 10:59N 40°45' E 013°56'0 0.0
2017-Jul-22 10:26N 40°45' E 013°56'0 0.0
2017-Jul-22 09:59N 40°45' E 013°56'0 0.0
2017-Jul-22 09:30N 40°45' E 013°56'612.6
2017-Jul-22 09:00N 40°45' E 014°05'10 7.4
2017-Jul-22 07:42N 40°50' E 014°15'2 8.3
2017-Jul-22 07:31N 40°49' E 014°17'3 5.4
2017-Jul-22 07:00N 40°50' E 014°13'0 0.0
2017-Jul-21 17:10N 40°50' E 014°13'315.6
2017-Jul-21 17:00N 40°47' E 014°12'1224.2
2017-Jul-21 16:30N 40°45' E 013°56'817.1
2017-Jul-21 16:01N 40°41' E 014°06'9 8.3
2017-Jul-21 14:52N 40°34' E 014°15'1 3.4
2017-Jul-21 14:29N 40°34' E 014°16'1 2.4
2017-Jul-21 14:01N 40°34' E 014°18'0 0.4
2017-Jul-21 13:31N 40°34' E 014°18'0 0.3
2017-Jul-21 13:00N 40°34' E 014°18'0 0.3
2017-Jul-21 12:30N 40°34' E 014°17'0 0.5
2017-Jul-21 12:00N 40°33' E 014°17'0 0.5
2017-Jul-21 11:30N 40°33' E 014°18'0 0.4
2017-Jul-21 10:54N 40°33' E 014°18'0 0.2
2017-Jul-21 10:30N 40°33' E 014°18'2 1.2
2017-Jul-21 08:27N 40°33' E 014°15'920.0
2017-Jul-21 08:00N 40°40' E 014°07'918.3
2017-Jul-21 07:30N 40°45' E 013°56'1 1.0
2017-Jul-21 06:59N 40°45' E 013°57'1428.1
2017-Jul-21 06:31N 40°49' E 014°14'0 0.0
2017-Jul-20 16:13N 40°50' E 014°13'2 2.9
2017-Jul-20 15:29N 40°48' E 014°15'1528.7
2017-Jul-20 14:58N 40°45' E 013°56'9 9.6
2017-Jul-20 14:01N 40°47' E 014°08'6 4.3
2017-Jul-20 12:35N 40°48' E 014°16'331.0
2017-Jul-20 12:29N 40°47' E 014°12'1 0.4
2017-Jul-20 10:34N 40°47' E 014°11'228.4
2017-Jul-20 10:29N 40°48' E 014°13'3 4.6
2017-Jul-20 09:52N 40°50' E 014°15'2 4.3
2017-Jul-20 09:30N 40°50' E 014°13'0 0.0
2017-Jul-20 08:28N 40°50' E 014°13'0 0.0
2017-Jul-20 07:59N 40°50' E 014°13'0 0.0
2017-Jul-20 07:28N 40°50' E 014°13'2 2.6
2017-Jul-20 06:37N 40°48' E 014°16'329.0
2017-Jul-20 06:30N 40°47' E 014°12'1 0.7
2017-Jul-20 05:27N 40°47' E 014°11'4 0.2
2017-Jul-19 06:38N 40°49' E 014°16'2 0.1
2017-Jul-18 12:31N 40°50' E 014°13'0 0.0
2017-Jul-18 12:29N 40°50' E 014°13'0 0.0
2017-Jul-18 12:00N 40°50' E 014°13'0 0.0
2017-Jul-18 11:30N 40°50' E 014°13'0 0.0
2017-Jul-18 11:00N 40°50' E 014°13'0 0.0
2017-Jul-18 10:30N 40°50' E 014°13'0 0.0
2017-Jul-18 10:00N 40°50' E 014°13'0 0.0
2017-Jul-18 09:30N 40°50' E 014°13'0 0.0
2017-Jul-18 09:00N 40°50' E 014°13'0 0.9
2017-Jul-18 08:30N 40°49' E 014°14'2 1.1
2017-Jul-18 06:42N 40°48' E 014°16'528.4
2017-Jul-18 06:30N 40°47' E 014°09'4 4.4
2017-Jul-18 05:40N 40°46' E 014°05'530.0
2017-Jul-18 05:30N 40°47' E 014°11'2 0.1
2017-Jul-17 10:24N 40°48' E 014°13'2 0.7
2017-Jul-17 08:03N 40°47' E 014°11'128.0
2017-Jul-17 08:00N 40°47' E 014°13'3 2.5
2017-Jul-17 06:51N 40°48' E 014°16'6 4.8
2017-Jul-17 05:33N 40°47' E 014°08'129.0
2017-Jul-17 05:30N 40°47' E 014°10'4 0.4
2017-Jul-16 18:30N 40°50' E 014°13'3 3.4
2017-Jul-16 17:33N 40°47' E 014°11'131.8
2017-Jul-16 17:30N 40°47' E 014°13'2 2.8
2017-Jul-16 16:43N 40°48' E 014°16'4 1.3
2017-Jul-16 13:57N 40°47' E 014°11'0 0.1
2017-Jul-16 10:39N 40°47' E 014°12'3 2.8
2017-Jul-16 09:31N 40°48' E 014°16'126.6
2017-Jul-16 09:29N 40°48' E 014°14'2 0.1
2017-Jul-15 16:07N 40°50' E 014°13'2 3.2
2017-Jul-15 15:26N 40°48' E 014°16'4 2.5
2017-Jul-15 13:57N 40°47' E 014°11'1 0.8
2017-Jul-15 12:33N 40°47' E 014°13'330.3
2017-Jul-15 12:28N 40°46' E 014°10'5 0.2
2017-Jul-14 15:31N 40°48' E 014°16'030.9
2017-Jul-14 15:30N 40°48' E 014°15'3 2.2
2017-Jul-14 13:57N 40°47' E 014°11'  

Dump ship's entire track history